createdAt,value
2022-12-14T00:02:43.822Z,97255.16
2022-12-14T00:07:49.153Z,97248.88
2022-12-14T00:12:52.093Z,97249.63
2022-12-14T00:17:55.285Z,97241.06
2022-12-14T00:22:59.366Z,97233.41
2022-12-14T00:28:02.082Z,97215.34
2022-12-14T00:33:04.994Z,97217.03
2022-12-14T00:38:09.104Z,97217.03
2022-12-14T00:43:11.875Z,97220.41
2022-12-14T00:48:15.234Z,97222.84
2022-12-14T00:53:19.633Z,97215.94
2022-12-14T00:58:25.102Z,97230.72
2022-12-14T01:03:28.706Z,97211.50
2022-12-14T01:08:36.383Z,97212.34
2022-12-14T01:13:39.753Z,97209.59
2022-12-14T01:18:44.242Z,97200.16
2022-12-14T01:23:49.946Z,97183.56
2022-12-14T01:28:57.359Z,97188.69
2022-12-14T01:34:00.413Z,97171.59
2022-12-14T01:39:07.234Z,97158.47
2022-12-14T01:45:02.205Z,97148.09
2022-12-14T01:50:11.788Z,97143.81
2022-12-14T01:55:20.633Z,97137.00
2022-12-14T02:00:25.306Z,97143.97
2022-12-14T02:05:28.777Z,97129.44
2022-12-14T02:10:33.510Z,97119.09
2022-12-14T02:15:38.806Z,97114.91
2022-12-14T02:20:50.222Z,97107.75
2022-12-14T02:26:35.669Z,97101.72
2022-12-14T02:31:49.082Z,97105.91
2022-12-14T02:36:58.929Z,97104.84
2022-12-14T02:42:08.730Z,97090.25
2022-12-14T02:47:23.557Z,97084.00
2022-12-14T02:52:36.876Z,97073.69
2022-12-14T02:57:45.018Z,97069.25
2022-12-14T03:02:50.056Z,97059.81
2022-12-14T03:07:56.810Z,97059.00
2022-12-14T03:13:10.877Z,97048.59
2022-12-14T03:18:19.660Z,97045.28
2022-12-14T03:23:28.040Z,97035.56
2022-12-14T03:28:36.152Z,97024.13
2022-12-14T03:33:44.053Z,97030.38
2022-12-14T03:38:51.463Z,97017.41
2022-12-14T03:44:08.787Z,97015.41
2022-12-14T03:49:20.482Z,97012.03
2022-12-14T03:54:31.437Z,97008.63
2022-12-14T03:59:40.822Z,97013.88
2022-12-14T04:04:50.731Z,97012.81
2022-12-14T04:09:56.863Z,97004.91
2022-12-14T04:15:22.378Z,97003.25
2022-12-14T04:20:29.646Z,97023.84
2022-12-14T04:25:54.475Z,97029.09
2022-12-14T04:30:59.941Z,97021.88
2022-12-14T04:36:05.464Z,97021.06
2022-12-14T04:41:12.377Z,97036.91
2022-12-14T04:46:18.880Z,97032.91
2022-12-14T04:51:28.779Z,97021.72
2022-12-14T04:56:37.429Z,97015.69
2022-12-14T05:01:50.375Z,97010.31
2022-12-14T05:07:06.126Z,96995.78
2022-12-14T05:12:16.813Z,96991.41
2022-12-14T05:17:20.386Z,96988.56
2022-12-14T05:22:24.553Z,96978.91
2022-12-14T05:27:27.372Z,96977.38
2022-12-14T05:32:30.556Z,96968.56
2022-12-14T05:37:34.707Z,96952.09
2022-12-14T05:42:44.183Z,96946.72
2022-12-14T05:47:48.006Z,96931.16
2022-12-14T05:52:54.770Z,96935.22
2022-12-14T05:57:57.624Z,96924.13
2022-12-14T06:03:00.426Z,96906.50
2022-12-14T06:08:04.678Z,96894.28
2022-12-14T06:13:07.657Z,96885.84
2022-12-14T06:18:10.478Z,96879.06
2022-12-14T06:23:14.635Z,96881.84
2022-12-14T06:28:17.683Z,96876.41
2022-12-14T06:33:20.465Z,96863.06
2022-12-14T06:38:27.280Z,96873.03
2022-12-14T06:43:30.810Z,96868.59
2022-12-14T06:48:38.305Z,96868.47
2022-12-14T06:53:42.640Z,96868.00
2022-12-14T06:58:46.067Z,96866.56
2022-12-14T07:03:50.656Z,96877.53
2022-12-14T07:08:57.527Z,96874.47
2022-12-14T07:14:03.203Z,96870.44
2022-12-14T07:19:06.028Z,96865.66
2022-12-14T07:24:10.285Z,96861.72
2022-12-14T07:29:15.017Z,96870.63
2022-12-14T07:34:17.907Z,96879.72
2022-12-14T07:39:25.775Z,96884.41
2022-12-14T07:44:28.648Z,96891.53
2022-12-14T07:49:32.368Z,96904.38
2022-12-14T07:54:36.497Z,96902.13
2022-12-14T07:59:39.501Z,96897.34
2022-12-14T08:04:43.275Z,96900.38
2022-12-14T08:09:48.549Z,96896.28
2022-12-14T08:14:52.509Z,96902.06
2022-12-14T08:19:56.099Z,96900.78
2022-12-14T08:25:00.449Z,96895.75
2022-12-14T08:30:04.383Z,96890.72
2022-12-14T08:35:08.084Z,96890.38
2022-12-14T08:40:12.890Z,96884.06
2022-12-14T08:45:17.581Z,96891.88
2022-12-14T08:50:21.194Z,96897.59
2022-12-14T08:55:29.150Z,96891.94
2022-12-14T09:00:34.446Z,96898.94
2022-12-14T09:05:37.408Z,96905.84
2022-12-14T09:10:41.597Z,96902.06
2022-12-14T09:15:44.554Z,96916.19
2022-12-14T09:20:47.566Z,96917.34
2022-12-14T09:26:06.419Z,96919.78
2022-12-14T09:31:13.422Z,96928.25
2022-12-14T09:36:19.056Z,96924.97
2022-12-14T09:41:33.569Z,96916.78
2022-12-14T09:46:55.169Z,96909.59
2022-12-14T09:52:02.140Z,96906.00
2022-12-14T09:57:12.704Z,96922.94
2022-12-14T10:02:35.907Z,96910.66
2022-12-14T10:07:47.313Z,96914.88
2022-12-14T10:13:06.474Z,96895.28
2022-12-14T10:19:00.893Z,96906.84
2022-12-14T10:23:58.796Z,96901.44
2022-12-14T10:29:08.418Z,96896.22
2022-12-14T10:34:19.662Z,96894.00
2022-12-14T10:39:35.602Z,96890.28
2022-12-14T10:44:56.222Z,96886.72
2022-12-14T10:50:20.464Z,96888.56
2022-12-14T10:55:32.999Z,96885.53
2022-12-14T11:00:42.186Z,96878.63
2022-12-14T11:05:53.181Z,96867.81
2022-12-14T11:11:13.988Z,96870.34
2022-12-14T11:16:37.139Z,96870.78
2022-12-14T11:21:44.031Z,96865.16
2022-12-14T11:26:48.624Z,96870.44
2022-12-14T11:31:53.634Z,96853.06
2022-12-14T11:36:56.526Z,96840.06
2022-12-14T11:42:02.938Z,96845.38
2022-12-14T11:47:13.719Z,96854.59
2022-12-14T11:52:20.723Z,96855.03
2022-12-14T11:57:30.990Z,96863.19
2022-12-14T12:02:38.119Z,96866.53
2022-12-14T12:07:45.931Z,96860.91
2022-12-14T12:12:54.277Z,96859.75
2022-12-14T12:18:02.015Z,96860.09
2022-12-14T12:23:11.826Z,96858.53
2022-12-14T12:28:24.365Z,96861.56
2022-12-14T12:33:43.037Z,96853.00
2022-12-14T12:38:55.404Z,96852.06
2022-12-14T12:44:02.638Z,96855.75
2022-12-14T12:49:11.761Z,96849.75
2022-12-14T12:54:21.781Z,96853.72
2022-12-14T12:59:37.252Z,96855.22
2022-12-14T13:04:47.792Z,96857.94
2022-12-14T13:10:05.207Z,96858.97
2022-12-14T13:15:19.120Z,96857.94
2022-12-14T13:20:29.005Z,96867.47
2022-12-14T13:25:43.530Z,96863.25
2022-12-14T13:31:15.063Z,96873.72
2022-12-14T13:36:45.721Z,96877.44
2022-12-14T13:41:57.719Z,96878.19
2022-12-14T13:47:02.638Z,96873.22
2022-12-14T13:52:07.180Z,96878.47
2022-12-14T13:57:13.832Z,96881.81
2022-12-14T14:02:40.938Z,96888.50
2022-12-14T14:07:54.402Z,96884.94
2022-12-14T14:12:57.562Z,96880.06
2022-12-14T14:18:12.595Z,96879.84
2022-12-14T14:23:37.414Z,96882.25
2022-12-14T14:28:41.822Z,96896.06
2022-12-14T14:33:49.106Z,96891.69
2022-12-14T14:38:56.099Z,96891.06
2022-12-14T14:44:01.885Z,96905.88
2022-12-14T14:49:06.617Z,96914.78
2022-12-14T14:55:10.677Z,96923.31
2022-12-14T15:00:01.141Z,96936.31
2022-12-14T15:05:33.187Z,96940.47
2022-12-14T15:10:37.619Z,96950.47
2022-12-14T15:15:45.203Z,96952.94
2022-12-14T15:20:57.002Z,96958.56
2022-12-14T15:26:03.777Z,96957.44
2022-12-14T15:31:07.095Z,96971.56
2022-12-14T15:36:16.564Z,96970.34
2022-12-14T15:41:21.510Z,96974.16
2022-12-14T15:46:29.467Z,96978.63
2022-12-14T15:51:35.649Z,96987.41
2022-12-14T15:56:42.676Z,96993.56
2022-12-14T16:01:54.326Z,97005.31
2022-12-14T16:07:08.567Z,96998.22
2022-12-14T16:12:21.813Z,96994.13
2022-12-14T16:17:29.411Z,96998.97
2022-12-14T16:22:33.576Z,97004.31
2022-12-14T16:27:41.071Z,97016.69
2022-12-14T16:32:43.986Z,97023.88
2022-12-14T16:37:55.737Z,97031.44
2022-12-14T16:43:00.034Z,97033.19
2022-12-14T16:48:08.298Z,97033.31
2022-12-14T16:53:17.392Z,97038.41
2022-12-14T16:58:21.829Z,97050.72
2022-12-14T17:03:25.261Z,97052.50
2022-12-14T17:08:28.538Z,97055.13
2022-12-14T17:13:33.011Z,97063.53
2022-12-14T17:18:40.300Z,97061.66
2022-12-14T17:23:44.150Z,97076.31
2022-12-14T17:28:48.966Z,97078.94
2022-12-14T17:33:53.200Z,97082.53
2022-12-14T17:38:55.917Z,97085.81
2022-12-14T17:44:00.306Z,97082.28
2022-12-14T17:49:06.663Z,97089.38
2022-12-14T17:54:14.924Z,97082.28
2022-12-14T17:59:19.207Z,97098.69
2022-12-14T18:04:22.152Z,97095.59
2022-12-14T18:09:30.506Z,97099.91
2022-12-14T18:14:34.884Z,97108.59
2022-12-14T18:19:39.060Z,97101.75
2022-12-14T18:24:42.013Z,97109.34
2022-12-14T18:29:46.242Z,97102.50
2022-12-14T18:34:48.957Z,97103.44
2022-12-14T18:39:51.736Z,97120.72
2022-12-14T18:44:55.902Z,97111.28
2022-12-14T18:49:58.701Z,97117.50
2022-12-14T18:55:01.596Z,97126.13
2022-12-14T19:00:07.160Z,97122.72
2022-12-14T19:05:15.393Z,97122.66
2022-12-14T19:10:20.112Z,97134.03
2022-12-14T19:15:26.329Z,97135.72
2022-12-14T19:20:29.895Z,97142.31
2022-12-14T19:25:32.982Z,97144.16
2022-12-14T19:30:37.457Z,97155.28
2022-12-14T19:35:41.272Z,97162.53
2022-12-14T19:40:46.299Z,97163.47
2022-12-14T19:45:50.440Z,97165.06
2022-12-14T19:50:53.592Z,97158.16
2022-12-14T19:55:59.231Z,97162.81
2022-12-14T20:01:08.966Z,97172.31
2022-12-14T20:06:11.803Z,97187.16
2022-12-14T20:11:14.610Z,97182.56
2022-12-14T20:16:19.529Z,97191.28
2022-12-14T20:21:23.067Z,97194.50
2022-12-14T20:26:26.599Z,97192.69
2022-12-14T20:31:30.720Z,97199.78
2022-12-14T20:36:33.818Z,97213.59
2022-12-14T20:41:36.664Z,97208.81
2022-12-14T20:46:42.328Z,97216.47
2022-12-14T20:51:47.362Z,97214.69
2022-12-14T20:56:50.697Z,97221.59
2022-12-14T21:01:56.447Z,97231.97
2022-12-14T21:06:59.647Z,97234.81
2022-12-14T21:12:19.914Z,97237.09
2022-12-14T21:17:25.786Z,97238.88
2022-12-14T21:22:31.968Z,97234.41
2022-12-14T21:27:38.064Z,97230.19
2022-12-14T21:32:42.317Z,97239.88
2022-12-14T21:37:45.098Z,97236.03
2022-12-14T21:42:50.350Z,97243.00
2022-12-14T21:47:55.322Z,97245.25
2022-12-14T21:52:58.089Z,97247.13
2022-12-14T21:58:18.831Z,97237.53
2022-12-14T22:03:23.005Z,97246.59
2022-12-14T22:08:26.036Z,97252.50
2022-12-14T22:13:29.038Z,97253.63
2022-12-14T22:18:34.720Z,97250.41
2022-12-14T22:23:42.960Z,97252.63
2022-12-14T22:28:46.438Z,97251.81
2022-12-14T22:33:51.224Z,97248.56
2022-12-14T22:38:56.215Z,97247.97
2022-12-14T22:43:59.900Z,97243.59
2022-12-14T22:49:04.230Z,97250.75
2022-12-14T22:54:07.426Z,97249.06
2022-12-14T22:59:15.571Z,97250.00
2022-12-14T23:04:19.781Z,97257.22
2022-12-14T23:09:39.859Z,97260.50
2022-12-14T23:15:00.260Z,97280.44
2022-12-14T23:20:22.193Z,97277.59
2022-12-14T23:25:42.802Z,97274.13
2022-12-14T23:31:02.965Z,97266.47
2022-12-14T23:36:26.469Z,97283.72
2022-12-14T23:41:46.658Z,97294.31
2022-12-14T23:47:06.864Z,97277.16
2022-12-14T23:52:28.359Z,97278.84
2022-12-14T23:57:48.577Z,97273.88
